Terminal Aerodrome Forecast
Issued by NWS

Home | Current Version | Previous Version | Text Only | Print | Product List | Glossary On
Versions: 1 2 3 4 5 6 7 8 9 10 11 12 13 14 15 16 17 18 19 20 21 22 23 24 25 26 27 28 29 30 31 32 33 34 35 36 37 38 39 40 41 42 43 44 45 46 47 48 49 50
000
FTUS46 KOTX 201145 CCA
TAFMWH
TAF COR
KMWH 201145Z 2012/2112 01006KT P6SM SCT060 BKN120
     FM202100 04008KT P6SM VCSH BKN040 OVC070
     FM210000 02007KT 6SM -RAPL BKN025 OVC040
     FM210500 03008KT 2SM -SNPL BR OVC012=

USA.gov is the U.S. government's official web portal to all federal, state and local government web resources and services.